sensor_id;sensor_type;location;lat;lon;timestamp;pressure;altitude;pressure_sealevel;temperature;humidity
46111;BME280;31849;55.992;37.252;2024-02-23T00:03:52;99275.19;;;-2.96;76.52
46111;BME280;31849;55.992;37.252;2024-02-23T00:08:57;99268.53;;;-2.94;76.68
46111;BME280;31849;55.992;37.252;2024-02-23T00:14:02;99265.31;;;-2.90;76.75
46111;BME280;31849;55.992;37.252;2024-02-23T00:19:07;99264.38;;;-2.74;76.13
46111;BME280;31849;55.992;37.252;2024-02-23T00:24:12;99263.31;;;-2.79;76.35
46111;BME280;31849;55.992;37.252;2024-02-23T00:29:16;99261.47;;;-2.81;77.17
46111;BME280;31849;55.992;37.252;2024-02-23T00:34:21;99266.50;;;-2.83;77.15
46111;BME280;31849;55.992;37.252;2024-02-23T00:39:25;99277.75;;;-2.78;76.85
46111;BME280;31849;55.992;37.252;2024-02-23T00:44:29;99273.69;;;-2.74;76.64
46111;BME280;31849;55.992;37.252;2024-02-23T00:49:35;99280.16;;;-2.81;77.22
46111;BME280;31849;55.992;37.252;2024-02-23T00:54:39;99282.34;;;-2.71;76.89
46111;BME280;31849;55.992;37.252;2024-02-23T00:59:43;99273.91;;;-2.70;76.88
46111;BME280;31849;55.992;37.252;2024-02-23T01:04:48;99280.97;;;-2.82;77.23
46111;BME280;31849;55.992;37.252;2024-02-23T01:09:52;99283.50;;;-2.64;76.43
46111;BME280;31849;55.992;37.252;2024-02-23T01:14:56;99277.50;;;-2.47;76.35
46111;BME280;31849;55.992;37.252;2024-02-23T01:20:07;99275.72;;;-2.49;75.63
46111;BME280;31849;55.992;37.252;2024-02-23T01:25:11;99280.66;;;-2.52;76.40
46111;BME280;31849;55.992;37.252;2024-02-23T01:30:18;99284.94;;;-2.51;76.25
46111;BME280;31849;55.992;37.252;2024-02-23T01:35:24;99274.97;;;-2.47;76.23
46111;BME280;31849;55.992;37.252;2024-02-23T01:40:28;99274.31;;;-2.42;75.74
46111;BME280;31849;55.992;37.252;2024-02-23T01:45:32;99270.16;;;-2.58;76.93
46111;BME280;31849;55.992;37.252;2024-02-23T01:50:38;99268.09;;;-2.49;75.96
46111;BME280;31849;55.992;37.252;2024-02-23T01:55:45;99270.56;;;-2.51;76.36
46111;BME280;31849;55.992;37.252;2024-02-23T02:00:50;99273.63;;;-2.58;77.03
46111;BME280;31849;55.992;37.252;2024-02-23T02:05:57;99271.34;;;-2.52;76.14
46111;BME280;31849;55.992;37.252;2024-02-23T02:11:02;99264.94;;;-2.43;75.84
46111;BME280;31849;55.992;37.252;2024-02-23T02:16:06;99261.31;;;-2.49;76.67
46111;BME280;31849;55.992;37.252;2024-02-23T02:21:12;99261.47;;;-2.63;76.68
46111;BME280;31849;55.992;37.252;2024-02-23T02:26:16;99260.16;;;-2.55;76.39
46111;BME280;31849;55.992;37.252;2024-02-23T02:31:20;99266.84;;;-2.57;76.60
46111;BME280;31849;55.992;37.252;2024-02-23T02:36:25;99270.84;;;-2.62;76.77
46111;BME280;31849;55.992;37.252;2024-02-23T02:41:29;99279.28;;;-2.63;76.70
46111;BME280;31849;55.992;37.252;2024-02-23T02:46:33;99270.94;;;-2.61;77.12
46111;BME280;31849;55.992;37.252;2024-02-23T02:51:39;99268.88;;;-2.50;76.73
46111;BME280;31849;55.992;37.252;2024-02-23T02:56:43;99262.81;;;-2.34;75.46
46111;BME280;31849;55.992;37.252;2024-02-23T03:01:48;99274.75;;;-2.51;76.56
46111;BME280;31849;55.992;37.252;2024-02-23T03:06:53;99270.91;;;-2.43;75.75
46111;BME280;31849;55.992;37.252;2024-02-23T03:11:57;99290.75;;;-2.36;75.87
46111;BME280;31849;55.992;37.252;2024-02-23T03:17:01;99281.44;;;-2.35;75.79
46111;BME280;31849;55.992;37.252;2024-02-23T03:22:07;99294.13;;;-2.55;76.84
46111;BME280;31849;55.992;37.252;2024-02-23T03:27:11;99291.84;;;-2.49;76.37
46111;BME280;31849;55.992;37.252;2024-02-23T03:32:16;99300.59;;;-2.43;76.29
46111;BME280;31849;55.992;37.252;2024-02-23T03:37:21;99304.44;;;-2.34;76.38
46111;BME280;31849;55.992;37.252;2024-02-23T03:42:25;99302.00;;;-2.31;75.76
46111;BME280;31849;55.992;37.252;2024-02-23T03:47:29;99310.25;;;-2.36;76.37
46111;BME280;31849;55.992;37.252;2024-02-23T03:52:34;99300.66;;;-2.42;76.98
46111;BME280;31849;55.992;37.252;2024-02-23T03:57:38;99297.94;;;-2.27;75.81
46111;BME280;31849;55.992;37.252;2024-02-23T04:02:44;99300.19;;;-2.33;76.43
46111;BME280;31849;55.992;37.252;2024-02-23T04:07:49;99303.13;;;-2.25;76.02
46111;BME280;31849;55.992;37.252;2024-02-23T04:12:53;99312.41;;;-2.26;76.31
46111;BME280;31849;55.992;37.252;2024-02-23T04:17:58;99308.22;;;-2.25;75.84
46111;BME280;31849;55.992;37.252;2024-02-23T04:23:03;99321.59;;;-2.30;76.38
46111;BME280;31849;55.992;37.252;2024-02-23T04:28:07;99324.22;;;-2.28;76.32
46111;BME280;31849;55.992;37.252;2024-02-23T04:33:11;99321.28;;;-2.18;76.19
46111;BME280;31849;55.992;37.252;2024-02-23T04:38:17;99322.88;;;-2.20;76.17
46111;BME280;31849;55.992;37.252;2024-02-23T04:43:20;99327.63;;;-2.27;77.22
46111;BME280;31849;55.992;37.252;2024-02-23T04:48:25;99315.91;;;-2.24;77.06
46111;BME280;31849;55.992;37.252;2024-02-23T04:53:30;99314.88;;;-2.27;77.43
46111;BME280;31849;55.992;37.252;2024-02-23T04:58:34;99309.28;;;-2.20;77.08
46111;BME280;31849;55.992;37.252;2024-02-23T05:03:40;99322.09;;;-2.19;76.96
46111;BME280;31849;55.992;37.252;2024-02-23T05:08:45;99327.38;;;-2.14;77.01
46111;BME280;31849;55.992;37.252;2024-02-23T05:13:49;99314.88;;;-2.27;77.40
46111;BME280;31849;55.992;37.252;2024-02-23T05:18:53;99340.56;;;-2.23;78.07
46111;BME280;31849;55.992;37.252;2024-02-23T05:23:59;99338.91;;;-2.22;77.81
46111;BME280;31849;55.992;37.252;2024-02-23T05:29:03;99348.75;;;-2.30;78.41
46111;BME280;31849;55.992;37.252;2024-02-23T05:34:07;99348.22;;;-2.23;78.17
46111;BME280;31849;55.992;37.252;2024-02-23T05:39:13;99358.41;;;-2.23;78.00
46111;BME280;31849;55.992;37.252;2024-02-23T05:44:18;99370.63;;;-2.34;79.04
46111;BME280;31849;55.992;37.252;2024-02-23T05:49:22;99355.84;;;-2.23;78.32
46111;BME280;31849;55.992;37.252;2024-02-23T05:54:28;99346.75;;;-2.00;77.27
46111;BME280;31849;55.992;37.252;2024-02-23T05:59:31;99365.16;;;-2.05;77.70
46111;BME280;31849;55.992;37.252;2024-02-23T06:04:35;99366.19;;;-2.02;77.76
46111;BME280;31849;55.992;37.252;2024-02-23T06:09:41;99367.91;;;-2.01;77.63
46111;BME280;31849;55.992;37.252;2024-02-23T06:14:45;99369.88;;;-1.95;77.69
46111;BME280;31849;55.992;37.252;2024-02-23T06:19:49;99364.22;;;-2.07;78.00
46111;BME280;31849;55.992;37.252;2024-02-23T06:24:54;99379.44;;;-2.09;78.28
46111;BME280;31849;55.992;37.252;2024-02-23T06:29:58;99387.50;;;-2.00;78.16
46111;BME280;31849;55.992;37.252;2024-02-23T06:35:03;99380.41;;;-1.87;78.03
46111;BME280;31849;55.992;37.252;2024-02-23T06:40:10;99371.19;;;-1.85;77.61
46111;BME280;31849;55.992;37.252;2024-02-23T06:45:15;99388.91;;;-1.69;77.79
46111;BME280;31849;55.992;37.252;2024-02-23T06:50:19;99381.16;;;-1.52;77.22
46111;BME280;31849;55.992;37.252;2024-02-23T06:55:25;99373.63;;;-1.69;77.48
46111;BME280;31849;55.992;37.252;2024-02-23T07:00:29;99385.25;;;-1.74;77.87
46111;BME280;31849;55.992;37.252;2024-02-23T07:05:33;99387.50;;;-1.62;77.99
46111;BME280;31849;55.992;37.252;2024-02-23T07:10:39;99398.53;;;-1.81;78.41
46111;BME280;31849;55.992;37.252;2024-02-23T07:15:43;99396.56;;;-1.69;77.78
46111;BME280;31849;55.992;37.252;2024-02-23T07:20:47;99406.50;;;-1.55;77.23
46111;BME280;31849;55.992;37.252;2024-02-23T07:25:53;99403.31;;;-1.51;76.68
46111;BME280;31849;55.992;37.252;2024-02-23T07:30:57;99373.44;;;-1.54;76.92
46111;BME280;31849;55.992;37.252;2024-02-23T07:36:01;99393.38;;;-1.26;76.35
46111;BME280;31849;55.992;37.252;2024-02-23T07:41:07;99384.09;;;-1.24;76.19
46111;BME280;31849;55.992;37.252;2024-02-23T07:46:12;99385.50;;;-1.30;76.41
46111;BME280;31849;55.992;37.252;2024-02-23T07:51:15;99399.84;;;-1.52;76.66
46111;BME280;31849;55.992;37.252;2024-02-23T07:56:21;99402.75;;;-1.44;76.28
46111;BME280;31849;55.992;37.252;2024-02-23T08:01:25;99407.13;;;-1.22;75.96
46111;BME280;31849;55.992;37.252;2024-02-23T08:06:30;99413.84;;;-1.24;75.33
46111;BME280;31849;55.992;37.252;2024-02-23T08:11:36;99421.50;;;-1.24;75.41
46111;BME280;31849;55.992;37.252;2024-02-23T08:16:40;99411.22;;;-1.06;75.13
46111;BME280;31849;55.992;37.252;2024-02-23T08:21:44;99433.84;;;-1.14;75.10
46111;BME280;31849;55.992;37.252;2024-02-23T08:26:50;99423.97;;;-1.26;75.43
46111;BME280;31849;55.992;37.252;2024-02-23T08:31:54;99431.97;;;-1.18;75.21
46111;BME280;31849;55.992;37.252;2024-02-23T08:36:58;99427.94;;;-1.13;75.34
46111;BME280;31849;55.992;37.252;2024-02-23T08:42:04;99430.34;;;-1.16;74.85
46111;BME280;31849;55.992;37.252;2024-02-23T08:47:08;99433.44;;;-1.03;74.58
46111;BME280;31849;55.992;37.252;2024-02-23T08:52:12;99428.13;;;-0.89;74.41
46111;BME280;31849;55.992;37.252;2024-02-23T08:57:17;99437.78;;;-0.81;73.39
46111;BME280;31849;55.992;37.252;2024-02-23T09:02:22;99428.69;;;-0.75;74.25
46111;BME280;31849;55.992;37.252;2024-02-23T09:07:26;99447.38;;;-0.56;73.45
46111;BME280;31849;55.992;37.252;2024-02-23T09:12:32;99448.03;;;-0.60;72.88
46111;BME280;31849;55.992;37.252;2024-02-23T09:17:36;99446.53;;;-0.55;73.23
46111;BME280;31849;55.992;37.252;2024-02-23T09:22:40;99452.13;;;-0.44;72.67
46111;BME280;31849;55.992;37.252;2024-02-23T09:27:45;99442.38;;;-0.53;72.56
46111;BME280;31849;55.992;37.252;2024-02-23T09:32:49;99445.19;;;-0.26;71.80
46111;BME280;31849;55.992;37.252;2024-02-23T09:37:54;99451.22;;;-0.45;72.76
46111;BME280;31849;55.992;37.252;2024-02-23T09:42:59;99446.50;;;-0.36;72.34
46111;BME280;31849;55.992;37.252;2024-02-23T09:48:04;99435.00;;;-0.03;71.55
46111;BME280;31849;55.992;37.252;2024-02-23T09:53:11;99442.81;;;0.00;71.93
46111;BME280;31849;55.992;37.252;2024-02-23T09:58:19;99442.28;;;0.09;71.25
46111;BME280;31849;55.992;37.252;2024-02-23T10:03:24;99450.00;;;0.10;71.47
46111;BME280;31849;55.992;37.252;2024-02-23T10:08:31;99447.19;;;0.25;71.10
46111;BME280;31849;55.992;37.252;2024-02-23T10:13:36;99450.78;;;0.30;70.98
46111;BME280;31849;55.992;37.252;2024-02-23T10:18:40;99460.91;;;0.27;71.09
46111;BME280;31849;55.992;37.252;2024-02-23T10:23:45;99451.78;;;0.34;70.88
46111;BME280;31849;55.992;37.252;2024-02-23T10:28:50;99451.28;;;0.65;69.57
46111;BME280;31849;55.992;37.252;2024-02-23T10:33:56;99456.13;;;0.59;70.27
46111;BME280;31849;55.992;37.252;2024-02-23T10:39:02;99455.69;;;0.47;70.53
46111;BME280;31849;55.992;37.252;2024-02-23T10:44:09;99459.81;;;0.66;70.54
46111;BME280;31849;55.992;37.252;2024-02-23T10:49:15;99459.00;;;0.67;70.09
46111;BME280;31849;55.992;37.252;2024-02-23T10:54:19;99466.50;;;0.40;70.67
46111;BME280;31849;55.992;37.252;2024-02-23T10:59:26;99472.94;;;0.30;71.37
46111;BME280;31849;55.992;37.252;2024-02-23T11:04:32;99476.88;;;0.44;70.76
46111;BME280;31849;55.992;37.252;2024-02-23T11:09:37;99474.22;;;0.64;70.76
46111;BME280;31849;55.992;37.252;2024-02-23T11:14:44;99474.56;;;0.28;71.97
46111;BME280;31849;55.992;37.252;2024-02-23T11:19:49;99488.31;;;0.30;72.16
46111;BME280;31849;55.992;37.252;2024-02-23T11:24:59;99480.69;;;0.54;71.76
46111;BME280;31849;55.992;37.252;2024-02-23T11:30:07;99475.38;;;0.72;71.18
46111;BME280;31849;55.992;37.252;2024-02-23T11:35:15;99475.38;;;0.72;71.22
46111;BME280;31849;55.992;37.252;2024-02-23T11:40:22;99484.94;;;0.54;72.30
46111;BME280;31849;55.992;37.252;2024-02-23T11:45:27;99483.22;;;0.77;71.72
46111;BME280;31849;55.992;37.252;2024-02-23T11:50:33;99478.34;;;0.60;72.21
46111;BME280;31849;55.992;37.252;2024-02-23T11:55:37;99484.59;;;0.67;71.94
46111;BME280;31849;55.992;37.252;2024-02-23T12:00:43;99487.34;;;0.50;73.03
46111;BME280;31849;55.992;37.252;2024-02-23T12:05:49;99489.75;;;0.46;73.26
46111;BME280;31849;55.992;37.252;2024-02-23T12:10:54;99487.63;;;0.35;73.85
46111;BME280;31849;55.992;37.252;2024-02-23T12:16:03;99495.69;;;0.45;73.96
46111;BME280;31849;55.992;37.252;2024-02-23T12:21:08;99483.13;;;0.51;74.10
46111;BME280;31849;55.992;37.252;2024-02-23T12:26:14;99483.47;;;0.60;74.20
46111;BME280;31849;55.992;37.252;2024-02-23T12:31:24;99474.56;;;0.73;74.15
46111;BME280;31849;55.992;37.252;2024-02-23T12:36:29;99487.56;;;0.55;74.86
46111;BME280;31849;55.992;37.252;2024-02-23T12:41:37;99481.25;;;0.47;74.74
46111;BME280;31849;55.992;37.252;2024-02-23T12:46:43;99478.19;;;0.56;74.68
46111;BME280;31849;55.992;37.252;2024-02-23T12:51:47;99481.44;;;0.51;75.17
46111;BME280;31849;55.992;37.252;2024-02-23T12:56:50;99487.63;;;0.57;75.59
46111;BME280;31849;55.992;37.252;2024-02-23T13:01:56;99497.13;;;0.61;75.19
46111;BME280;31849;55.992;37.252;2024-02-23T13:07:00;99504.28;;;0.69;75.28
46111;BME280;31849;55.992;37.252;2024-02-23T13:12:05;99495.16;;;0.76;74.74
46111;BME280;31849;55.992;37.252;2024-02-23T13:17:10;99498.25;;;0.67;75.38
46111;BME280;31849;55.992;37.252;2024-02-23T13:22:15;99497.66;;;0.75;75.08
46111;BME280;31849;55.992;37.252;2024-02-23T13:27:19;99510.00;;;0.85;75.27
46111;BME280;31849;55.992;37.252;2024-02-23T13:32:24;99516.53;;;1.01;74.19
46111;BME280;31849;55.992;37.252;2024-02-23T13:37:29;99515.91;;;0.84;75.07
46111;BME280;31849;55.992;37.252;2024-02-23T13:42:33;99516.91;;;0.87;75.30
46111;BME280;31849;55.992;37.252;2024-02-23T13:47:38;99517.81;;;0.65;75.88
46111;BME280;31849;55.992;37.252;2024-02-23T13:52:42;99529.00;;;0.69;75.18
46111;BME280;31849;55.992;37.252;2024-02-23T13:57:46;99509.56;;;0.51;76.35
46111;BME280;31849;55.992;37.252;2024-02-23T14:02:53;99520.75;;;0.54;76.53
46111;BME280;31849;55.992;37.252;2024-02-23T14:07:57;99525.88;;;0.54;76.38
46111;BME280;31849;55.992;37.252;2024-02-23T14:13:01;99525.81;;;0.52;76.21
46111;BME280;31849;55.992;37.252;2024-02-23T14:18:07;99511.72;;;0.41;76.87
46111;BME280;31849;55.992;37.252;2024-02-23T14:23:11;99518.72;;;0.45;77.01
46111;BME280;31849;55.992;37.252;2024-02-23T14:28:15;99519.06;;;0.54;77.00
46111;BME280;31849;55.992;37.252;2024-02-23T14:33:21;99526.75;;;0.54;76.93
46111;BME280;31849;55.992;37.252;2024-02-23T14:38:25;99528.72;;;0.61;76.56
46111;BME280;31849;55.992;37.252;2024-02-23T14:43:29;99541.28;;;0.55;76.68
46111;BME280;31849;55.992;37.252;2024-02-23T14:48:35;99531.75;;;0.51;76.71
46111;BME280;31849;55.992;37.252;2024-02-23T14:53:39;99525.72;;;0.50;77.25
46111;BME280;31849;55.992;37.252;2024-02-23T14:58:43;99538.47;;;0.49;76.98
46111;BME280;31849;55.992;37.252;2024-02-23T15:04:07;99532.50;;;0.48;77.17
46111;BME280;31849;55.992;37.252;2024-02-23T15:09:11;99539.72;;;0.59;76.52
46111;BME280;31849;55.992;37.252;2024-02-23T15:14:15;99548.38;;;0.62;76.14
46111;BME280;31849;55.992;37.252;2024-02-23T15:19:21;99546.09;;;0.47;77.33
46111;BME280;31849;55.992;37.252;2024-02-23T15:24:26;99550.28;;;0.45;76.85
46111;BME280;31849;55.992;37.252;2024-02-23T15:29:30;99573.97;;;0.41;77.38
46111;BME280;31849;55.992;37.252;2024-02-23T15:34:35;99585.06;;;0.40;77.49
46111;BME280;31849;55.992;37.252;2024-02-23T15:39:40;99563.13;;;0.47;77.38
46111;BME280;31849;55.992;37.252;2024-02-23T15:44:43;99569.09;;;0.47;77.13
46111;BME280;31849;55.992;37.252;2024-02-23T15:49:49;99568.19;;;0.45;77.00
46111;BME280;31849;55.992;37.252;2024-02-23T15:55:14;99561.75;;;0.55;77.00
46111;BME280;31849;55.992;37.252;2024-02-23T16:00:19;99580.59;;;0.57;76.88
46111;BME280;31849;55.992;37.252;2024-02-23T16:05:25;99582.63;;;0.66;76.48
46111;BME280;31849;55.992;37.252;2024-02-23T16:10:29;99582.41;;;0.60;76.50
46111;BME280;31849;55.992;37.252;2024-02-23T16:15:34;99581.56;;;0.61;76.85
46111;BME280;31849;55.992;37.252;2024-02-23T16:20:39;99588.16;;;0.54;76.87
46111;BME280;31849;55.992;37.252;2024-02-23T16:25:43;99590.38;;;0.67;76.34
46111;BME280;31849;55.992;37.252;2024-02-23T16:30:47;99592.00;;;0.65;76.86
46111;BME280;31849;55.992;37.252;2024-02-23T16:35:54;99598.84;;;0.66;76.61
46111;BME280;31849;55.992;37.252;2024-02-23T16:41:00;99598.78;;;0.65;76.87
46111;BME280;31849;55.992;37.252;2024-02-23T16:46:04;99593.06;;;0.70;76.96
46111;BME280;31849;55.992;37.252;2024-02-23T16:51:09;99596.25;;;0.65;76.59
46111;BME280;31849;55.992;37.252;2024-02-23T16:56:14;99607.88;;;0.57;77.33
46111;BME280;31849;55.992;37.252;2024-02-23T17:01:18;99603.44;;;0.52;77.80
46111;BME280;31849;55.992;37.252;2024-02-23T17:06:23;99606.91;;;0.55;77.32
46111;BME280;31849;55.992;37.252;2024-02-23T17:11:27;99602.09;;;0.62;77.12
46111;BME280;31849;55.992;37.252;2024-02-23T17:16:31;99616.59;;;0.62;77.47
46111;BME280;31849;55.992;37.252;2024-02-23T17:21:37;99620.16;;;0.65;77.33
46111;BME280;31849;55.992;37.252;2024-02-23T17:26:41;99602.75;;;0.57;77.19
46111;BME280;31849;55.992;37.252;2024-02-23T17:31:45;99625.06;;;0.61;77.11
46111;BME280;31849;55.992;37.252;2024-02-23T17:36:51;99622.50;;;0.61;77.26
46111;BME280;31849;55.992;37.252;2024-02-23T17:41:55;99626.81;;;0.62;77.49
46111;BME280;31849;55.992;37.252;2024-02-23T17:47:01;99626.16;;;0.66;77.07
46111;BME280;31849;55.992;37.252;2024-02-23T17:52:06;99620.22;;;0.67;76.85
46111;BME280;31849;55.992;37.252;2024-02-23T17:57:12;99622.06;;;0.71;76.59
46111;BME280;31849;55.992;37.252;2024-02-23T18:02:16;99625.19;;;0.64;77.07
46111;BME280;31849;55.992;37.252;2024-02-23T18:07:21;99622.84;;;0.68;76.88
46111;BME280;31849;55.992;37.252;2024-02-23T18:12:25;99627.97;;;0.68;77.08
46111;BME280;31849;55.992;37.252;2024-02-23T18:17:46;99636.25;;;0.63;77.12
46111;BME280;31849;55.992;37.252;2024-02-23T18:22:52;99637.81;;;0.59;77.62
46111;BME280;31849;55.992;37.252;2024-02-23T18:27:57;99631.38;;;0.69;77.22
46111;BME280;31849;55.992;37.252;2024-02-23T18:33:01;99641.38;;;0.63;77.68
46111;BME280;31849;55.992;37.252;2024-02-23T18:38:06;99639.97;;;0.71;76.86
46111;BME280;31849;55.992;37.252;2024-02-23T18:43:11;99635.31;;;0.61;78.06
46111;BME280;31849;55.992;37.252;2024-02-23T18:48:17;99646.13;;;0.54;78.37
46111;BME280;31849;55.992;37.252;2024-02-23T18:53:24;99646.06;;;0.52;78.25
46111;BME280;31849;55.992;37.252;2024-02-23T18:58:28;99644.44;;;0.54;78.23
46111;BME280;31849;55.992;37.252;2024-02-23T19:03:32;99654.44;;;0.48;78.91
46111;BME280;31849;55.992;37.252;2024-02-23T19:08:38;99665.88;;;0.37;79.25
46111;BME280;31849;55.992;37.252;2024-02-23T19:13:42;99657.03;;;0.49;78.68
46111;BME280;31849;55.992;37.252;2024-02-23T19:18:46;99656.16;;;0.49;79.04
46111;BME280;31849;55.992;37.252;2024-02-23T19:23:51;99668.81;;;0.46;79.00
46111;BME280;31849;55.992;37.252;2024-02-23T19:28:55;99668.94;;;0.49;78.76
46111;BME280;31849;55.992;37.252;2024-02-23T19:34:00;99675.75;;;0.48;79.06
46111;BME280;31849;55.992;37.252;2024-02-23T19:39:08;99678.94;;;0.64;78.50
46111;BME280;31849;55.992;37.252;2024-02-23T19:44:14;99676.38;;;0.64;78.04
46111;BME280;31849;55.992;37.252;2024-02-23T19:49:18;99674.28;;;0.54;78.29
46111;BME280;31849;55.992;37.252;2024-02-23T19:54:23;99688.44;;;0.66;77.42
46111;BME280;31849;55.992;37.252;2024-02-23T19:59:28;99696.72;;;0.61;77.39
46111;BME280;31849;55.992;37.252;2024-02-23T20:04:34;99695.78;;;0.59;77.86
46111;BME280;31849;55.992;37.252;2024-02-23T20:09:40;99696.84;;;0.64;77.03
46111;BME280;31849;55.992;37.252;2024-02-23T20:14:44;99692.31;;;0.57;77.14
46111;BME280;31849;55.992;37.252;2024-02-23T20:19:48;99703.34;;;0.56;77.25
46111;BME280;31849;55.992;37.252;2024-02-23T20:24:54;99708.47;;;0.56;77.26
46111;BME280;31849;55.992;37.252;2024-02-23T20:29:58;99709.44;;;0.59;77.20
46111;BME280;31849;55.992;37.252;2024-02-23T20:35:02;99705.09;;;0.57;76.88
46111;BME280;31849;55.992;37.252;2024-02-23T20:40:08;99723.00;;;0.57;77.00
46111;BME280;31849;55.992;37.252;2024-02-23T20:45:12;99712.19;;;0.64;76.12
46111;BME280;31849;55.992;37.252;2024-02-23T20:50:16;99696.78;;;0.62;76.56
46111;BME280;31849;55.992;37.252;2024-02-23T20:55:22;99700.53;;;0.49;76.39
46111;BME280;31849;55.992;37.252;2024-02-23T21:00:26;99707.38;;;0.50;76.33
46111;BME280;31849;55.992;37.252;2024-02-23T21:05:30;99704.69;;;0.47;76.54
46111;BME280;31849;55.992;37.252;2024-02-23T21:10:35;99711.25;;;0.41;76.13
46111;BME280;31849;55.992;37.252;2024-02-23T21:15:39;99709.50;;;0.40;76.58
46111;BME280;31849;55.992;37.252;2024-02-23T21:20:43;99724.28;;;0.26;76.81
46111;BME280;31849;55.992;37.252;2024-02-23T21:25:51;99720.28;;;0.13;77.29
46111;BME280;31849;55.992;37.252;2024-02-23T21:30:55;99719.88;;;0.23;76.88
46111;BME280;31849;55.992;37.252;2024-02-23T21:36:06;99719.41;;;0.32;76.61
46111;BME280;31849;55.992;37.252;2024-02-23T21:41:12;99739.69;;;0.27;76.52
46111;BME280;31849;55.992;37.252;2024-02-23T21:46:16;99742.91;;;0.23;76.98
46111;BME280;31849;55.992;37.252;2024-02-23T21:51:19;99749.25;;;0.31;76.23
46111;BME280;31849;55.992;37.252;2024-02-23T21:56:25;99755.69;;;0.23;76.46
46111;BME280;31849;55.992;37.252;2024-02-23T22:01:29;99766.78;;;0.24;76.82
46111;BME280;31849;55.992;37.252;2024-02-23T22:06:35;99779.94;;;0.31;75.83
46111;BME280;31849;55.992;37.252;2024-02-23T22:11:40;99784.84;;;0.27;75.99
46111;BME280;31849;55.992;37.252;2024-02-23T22:16:44;99784.09;;;0.29;76.11
46111;BME280;31849;55.992;37.252;2024-02-23T22:21:48;99796.59;;;0.23;76.29
46111;BME280;31849;55.992;37.252;2024-02-23T22:26:54;99794.72;;;0.19;76.33
46111;BME280;31849;55.992;37.252;2024-02-23T22:31:58;99803.47;;;0.24;76.03
46111;BME280;31849;55.992;37.252;2024-02-23T22:37:02;99811.88;;;0.22;76.19
46111;BME280;31849;55.992;37.252;2024-02-23T22:42:08;99809.59;;;0.08;76.81
46111;BME280;31849;55.992;37.252;2024-02-23T22:47:13;99817.91;;;0.04;76.84
46111;BME280;31849;55.992;37.252;2024-02-23T22:52:17;99806.75;;;0.02;77.18
46111;BME280;31849;55.992;37.252;2024-02-23T22:57:22;99816.06;;;0.00;76.55
46111;BME280;31849;55.992;37.252;2024-02-23T23:02:26;99813.31;;;-0.03;77.04
46111;BME280;31849;55.992;37.252;2024-02-23T23:07:30;99809.25;;;0.01;76.97
46111;BME280;31849;55.992;37.252;2024-02-23T23:12:39;99815.53;;;-0.11;77.02
46111;BME280;31849;55.992;37.252;2024-02-23T23:17:43;99816.97;;;0.02;76.30
46111;BME280;31849;55.992;37.252;2024-02-23T23:22:47;99822.03;;;0.01;76.45
46111;BME280;31849;55.992;37.252;2024-02-23T23:27:52;99814.47;;;-0.16;76.47
46111;BME280;31849;55.992;37.252;2024-02-23T23:32:56;99826.22;;;-0.20;77.09
46111;BME280;31849;55.992;37.252;2024-02-23T23:38:01;99793.13;;;-0.16;76.65
46111;BME280;31849;55.992;37.252;2024-02-23T23:43:06;99802.09;;;-0.07;76.76
46111;BME280;31849;55.992;37.252;2024-02-23T23:48:10;99804.72;;;-0.05;76.39
46111;BME280;31849;55.992;37.252;2024-02-23T23:53:15;99778.16;;;-0.27;76.83
46111;BME280;31849;55.992;37.252;2024-02-23T23:58:20;99810.34;;;-0.12;76.62
